Goldfield, Nevada Weather observations

Data are for observation ending at time listed.
 Day   Time    Ave.   Ave.  Ave.  Vector   Max.   Stn.    Total    Solar   Ave.  
  of    of     Air    Rel.  Wind   Wind    Wind   Baro.  Precip.   Rad.    Soil  
Year   Day     Temp.  Hum.  Speed  Dir.    Gust   Pres.                    Temp. 
2017   (PST)    F      %     mph   deg.    mph     mb.     in.     W/m2     F   
------------------------------------------------------------------------------
 321    7:20   43.0    57    8.9   197     11.6   823.3    0.00      56    47.4
 321    7:30   44.3    55    9.6   200     12.8   823.2    0.00     116    47.4
 321    7:40   46.1    53    9.6   202     14.2   823.2    0.00     158    47.3
 321    7:50   47.8    50    8.2   203     11.8   823.2    0.00     134    47.2
 321    8:00   49.0    48   11.0   198     16.7   823.5    0.00     210    47.2
 321    8:10   50.8    46    9.9   194     16.3   823.4    0.00     238    47.3
 321    8:20   52.4    44    6.7   218     11.6   823.6    0.00     266    47.3
 321    8:30   53.3    42    9.4   218     16.7   823.6    0.00     292    47.3
 321    8:40   53.1    42   10.7   183     17.2   823.6    0.00     315    47.4
 321    8:50   52.8    43   11.3   190     16.2   823.8    0.00     340    47.4
 321    9:00   54.3    41    8.9   224     18.8   824.0    0.00     274    47.4
 321    9:10   55.1    39   13.2   244     23.0   824.3    0.00     177    47.5
 321    9:20   55.1    39   14.0   244     23.5   824.3    0.00     415    47.5
 321    9:30   55.0    40   12.8   242     22.2   824.4    0.00     437    47.6
 321    9:40   55.6    39   15.7   239     27.7   824.5    0.00     455    47.7
 321    9:50   55.8    39   15.6   244     24.4   824.6    0.00     473    47.9
 321   10:00   56.8    38   12.1   249     23.6   824.7    0.00     492    48.0
 321   10:10   57.5    37    9.3   244     17.1   824.8    0.00     508    48.2
 321   10:20   57.7    34   12.8   254     21.7   824.9    0.00     528    48.3
 321   10:30   57.8    38   12.4   304     21.2   825.1    0.00     536    48.5
 321   10:40   57.2    38   15.6   315     23.3   825.2    0.00     552    48.5
 321   10:50   57.3    37   14.8   310     21.2   825.2    0.00     543    48.6
 321   11:00   57.3    36   11.5   298     24.2   825.2    0.00     545    48.7
 321   11:10   57.2    37   13.5   318     20.9   825.4    0.00     565    48.7
 321   11:20   57.5    36   14.0   316     20.1   825.5    0.00     674    48.8
 321   11:30   58.0    32   11.7   314     19.1   825.5    0.00     661    48.9
 321   11:40   55.3    35   17.1   338     30.1   825.6    0.00     574    49.0
 321   11:50   50.5    41   22.2   337     33.0   825.9    0.00     381    49.0
 321   12:00   48.2    44   23.8   333     33.4   826.1    0.00     463    49.2
 321   12:10   47.6    43   22.3   337     31.7   826.2    0.00     518    49.4
 321   12:20   47.2    43   23.0   337     33.9   826.2    0.00     519    49.5
 321   12:30   46.6    42   24.8   335     34.0   826.4    0.00     513    49.6
 321   12:40   46.3    42   24.5   334     36.1   826.6    0.00     507    49.7
 321   12:50   45.8    42   25.6   332     34.0   826.8    0.00     497    49.8
 321   13:00   45.4    42   26.6   334     35.6   826.9    0.00     486    49.9
 321   13:10   45.6    40   27.1   332     34.9   827.1    0.00     472    50.0
 321   13:20   45.8    39   26.3   331     37.8   827.3    0.00     453    50.1
 321   13:30   45.5    38   26.9   331     36.0   827.4    0.00     438    50.1
 321   13:40   45.2    38   26.7   332     35.5   827.5    0.00     421    50.1
 321   13:50   44.9    38   26.4   333     37.8   827.6    0.00     401    50.1
 321   14:00   44.7    38   28.4   334     37.8   827.8    0.00     383    50.1
 321   14:10   45.4    36   24.3   328     34.3   828.1    0.00     362    50.2
 321   14:20   45.0    36   25.5   332     34.8   828.3    0.00     337    50.2
 321   14:30   44.8    36   25.2   329     33.5   828.5    0.00     311    50.2
 321   14:40   44.7    36   24.1   327     33.3   828.5    0.00     285    50.2
 321   14:50   43.8    36   24.5   332     30.8   828.4    0.00     261    50.1
 321   15:00   43.7    35   23.5   335     34.8   828.7    0.00     237    50.1
 321   15:10   43.5    35   21.5   336     31.1   829.0    0.00     211    50.0
 321   15:20   43.1    35   24.2   337     34.8   829.0    0.00     185    50.0
 321   15:30   42.5    35   23.2   337     34.6   829.3    0.00     163    49.9
 321   15:40   42.0    35   22.4   344     30.7   829.6    0.00     136    49.8
 321   15:50   41.5    35   20.3   342     31.4   829.8    0.00     100    49.7
 321   16:00   40.9    36   21.9   341     31.7   829.8    0.00      36    49.7
 321   16:10   40.1    36   23.0   333     33.2   829.8    0.00      16    49.5
 321   16:20   39.6    37   22.3   335     30.9   829.9    0.00      15    49.5
 321   16:30   39.2    37   20.6   334     30.9   830.1    0.00      11    49.4
 321   16:40   38.8    37   22.5   324     30.2   829.9    0.00       8    49.3
 321   16:50   38.4    37   20.8   332     30.9   830.2    0.00       3    49.2
 321   17:00   38.1    37   19.3   334     31.7   830.3    0.00       0    49.0
 321   17:10   37.7    36   13.5   350     21.5   831.1    0.00       0    48.8
 321   17:20   37.3    37   13.2   343     22.1   831.4    0.00       0    48.7
 321   17:30   37.0    40   15.3   329     22.1   831.4    0.00       0    48.5
 321   17:40   36.6    39   15.3   331     23.2   831.5    0.00       0    48.4
 321   17:50   36.4    38   13.5   332     21.2   831.8    0.00       0    48.3
 321   18:00   35.5    39   12.1   324     19.9   831.8    0.00       0    48.1
 321   18:10   35.2    39   11.4   331     16.9   832.2    0.00       0    48.0
 321   18:20   35.3    39   12.2   328     17.4   832.5    0.00       0    47.8
 321   18:30   35.2    38   15.2   332     21.5   832.3    0.00       0    47.7
 321   18:40   34.9    38   15.1   329     20.4   832.3    0.00       0    47.5
 321   18:50   34.5    38   11.6   326     17.2   832.8    0.00       0    47.4
 321   19:00   33.8    39   13.0   319     17.6   832.4    0.00       0    47.2
 321   19:10   33.4    39   11.2   321     17.6   832.8    0.00       0    47.0
 321   19:20   33.3    39   12.7   316     17.3   832.8    0.00       0    46.9
 321   19:30   33.2    38    9.8   325     14.4   833.1    0.00       0    46.8
 321   19:40   33.2    38   10.6   322     16.4   833.2    0.00       0    46.6
 321   19:50   32.3    40   10.3   315     14.8   833.2    0.00       0    46.4
 321   20:00   32.0    41    9.1   318     13.2   833.3    0.00       0    46.3
 321   20:10   31.3    42    9.0   310     14.3   833.4    0.00       0    46.1
 321   20:20   31.1    43    8.7   314     13.3   833.5    0.00       0    46.0
 321   20:30   30.5    44    7.5   311     12.1   833.8    0.00       0    45.8
 321   20:40   30.3    45    6.1   318      9.5   834.1    0.00       0    45.6
 321   20:50   29.7    46    7.3   315      9.3   834.1    0.00       0    45.5
 321   21:00   29.1    47    5.4   314      9.9   834.3    0.00       0    45.4
 321   21:10   28.8    48    4.7   306      8.4   834.5    0.00       0    45.1
 321   21:20   29.4    47    4.8   324      9.2   834.6    0.00       0    45.2
 321   21:30   29.1    47    2.8   346      5.8   834.9    0.00       0    44.9
 321   21:40   28.3    49    1.8    48      4.0   835.1    0.00       0    44.7
 321   21:50   28.7    48    0.7    60      1.6   835.3    0.00       0    44.6
 321   22:00   28.2    48    2.0   253      5.1   835.4    0.00       0    44.4
 321   22:10   26.7    50    1.2    58      4.6   835.6    0.00       0    44.3
 321   22:20   26.1    51    2.7   283      4.6   835.5    0.00       0    44.0
 321   22:30   26.2    51    5.6   333      8.3   835.4    0.00       0    43.9
 321   22:40   26.9    50    3.8   354      8.4   835.4    0.00       0    43.8
 321   22:50   26.1    52    3.1   136      6.4   835.6    0.00       0    43.6
 321   23:00   26.5    52    1.0    66      3.1   835.5    0.00       0    43.5
 321   23:10   26.6    52    1.9   359      4.2   835.6    0.00       0    43.4
 321   23:20   25.5    52    2.7   153      4.9   835.7    0.00       0    43.2
 321   23:30   25.1    53    2.8   153      5.3   836.0    0.00       0    43.1
 321   23:40   26.1    51    1.2   252      2.0   835.9    0.00       0    43.0
 321   23:50   25.4    51    3.2   286      5.4   835.7    0.00       0    42.8
 322    0:00   25.2    50    1.8   298      4.0   835.9    0.00       0    42.7
 322    0:10   24.4    51    3.1   316      6.1   836.0    0.00       0    42.5
 322    0:20   25.5    49    3.2   307      5.9   835.9    0.00       0    42.3
 322    0:30   25.7    48    3.0   326      7.7   835.9    0.00       0    42.2
 322    0:40   25.9    48    2.0     1      4.3   836.0    0.00       0    42.1
 322    0:50   24.7    50    1.4   340      3.0   835.9    0.00       0    41.9
 322    1:00   25.2    49    2.0   313      4.3   836.0    0.00       0    41.8
 322    1:10   25.2    49    1.2   357      4.1   836.1    0.00       0    41.7
 322    1:20   25.0    50    2.4   279      5.4   836.1    0.00       0    41.5
 322    1:30   25.6    49    4.0   301      7.7   836.0    0.00       0    41.4
 322    1:40   25.9    48    4.5   335      8.9   836.0    0.00       0    41.3
 322    1:50   25.3    49    3.3   312      7.6   835.8    0.00       0    41.1
 322    2:00   25.3    49    2.6   292      4.4   835.8    0.00       0    41.1
 322    2:10   25.6    48    4.0   297      5.8   835.9    0.00       0    40.9
 322    2:20   24.9    50    3.4   318      8.7   835.8    0.00       0    40.8
 322    2:30   24.3    50    2.2   348      4.7   835.8    0.00       0    40.6
 322    2:40   23.9    51    0.9   329      2.7   835.7    0.00       0    40.6
 322    2:50   23.7    51    2.0    11      3.8   835.7    0.00       0    40.4
 322    3:00   21.9    53    1.4   124      3.6   835.6    0.00       0    40.3
 322    3:10   21.2    54    1.2   165      3.2   835.6    0.00       0    40.3
 322    3:20   20.8    55    1.8   133      4.2   835.6    0.00       0    40.2
 322    3:30   21.1    54    2.0   133      4.7   835.4    0.00       0    40.0
 322    3:40   20.8    56    1.6   250      3.9   835.3    0.00       0    39.8
 322    3:50   21.0    54    1.1   327      3.5   835.3    0.00       0    39.7
 322    4:00   20.9    56    1.8   286      4.5   835.2    0.00       0    39.6
 322    4:10   21.1    55    2.1   294      3.9   835.3    0.00       0    39.5
 322    4:20   21.8    54    4.3   298      5.9   835.3    0.00       0    39.3
 322    4:30   22.4    54    3.5   305      5.9   835.4    0.00       0    39.2
 322    4:40   22.8    52    1.8   309      4.4   835.4    0.00       0    39.1
 322    4:50   21.8    54    2.0   317      3.3   835.5    0.00       0    39.0
 322    5:00   21.3    54    2.3   297      5.0   835.4    0.00       0    38.9
 322    5:10   21.7    54    2.5   298      3.7   835.5    0.00       0    38.8
 322    5:20   21.5    55    2.9   299      4.2   835.4    0.00       0    38.7
 322    5:30   21.4    55    2.1   305      3.8   835.3    0.00       0    38.6
 322    5:40   20.3    56    0.6   305      2.4   835.4    0.00       0    38.5
 322    5:50   19.6    57    0.2   336      1.2   835.5    0.00       0    38.4
 322    6:00   19.7    58    0.4   289      1.5   835.5    0.00       0    38.2
 322    6:10   19.2    58    0.5   262      2.0   835.5    0.00       0    38.1
 322    6:20   19.1    58    0.4   167      1.8   835.6    0.00       0    38.0
 322    6:30   19.0    58    1.1   107      3.4   835.5    0.00       0    37.9
 322    6:40   18.9    58    3.0   141      4.5   835.5    0.00       6    37.8
 322    6:50   20.1    56    2.0   163      2.8   835.6    0.00       8    37.7
 322    7:00   21.2    53    0.3   200      1.4   835.7    0.00      39    37.5
 322    7:10   20.2    55    0.8   145      1.9   835.7    0.00      63    37.4

Return to Goldfield, Nevada graphs page.


Western Regional Climate Center,wrcc@dri.edu